Terminal Aerodrome Forecast
Issued by NWS

Home | Current Version | Previous Version | Text Only | Print | Product List | Glossary On
Versions: 1 2 3 4 5 6 7 8 9 10 11 12 13
000
FTUS45 KGGW 260815 AAA
TAFGDV
TAF AMD
KGDV 260815Z 2608/2706 04007KT P6SM VCTS BKN080CB
      TEMPO 2609/2612 VRB25G35KT TSRA OVC100CB
     FM261200 03006KT P6SM BKN110
     FM261700 07010KT P6SM BKN110
     FM261800 07010KT P6SM VCTS BKN100CB
     FM270000 09011KT P6SM FEW250=

USA.gov is the U.S. government's official web portal to all federal, state and local government web resources and services.